RJA131 OJAI-LGAV
Flight info
| Callsign | RJA131 |
|---|---|
| Flight time | 1h 2m |
| Altitude | 32000 |
| Route | MUVIN L53 SUVAS N128 OTHON DCT LINRO DCT RIPLI UL995 VARIX |
| Aircraft | A320/M-SDE3FGHIRWY/LB1 |
Departure
| Time | 2026-05-08 13:35 |
|---|---|
| Airport | Queen Alia International Airport (OJAI) |
Arrival
| Time | 2026-05-08 14:37 |
|---|---|
| Airport | Athens Eleftherios Venizelos International Airport (LGAV) |
| Time | Latitude | Longitude | Altitude | Speed | Heading |
|---|---|---|---|---|---|
| 2026-05-08 13:22 | 31.72409 | 35.98747 | 2384 ft | 0 kts | 171° |
| 2026-05-08 13:26 | 31.72412 | 35.98747 | 2384 ft | 2 kts | 171° |
| 2026-05-08 13:27 | 31.72438 | 35.98742 | 2388 ft | 4 kts | 171° |
| 2026-05-08 13:27 | 31.72461 | 35.98738 | 2385 ft | 4 kts | 167° |
| 2026-05-08 13:27 | 31.72482 | 35.98726 | 2389 ft | 4 kts | 121° |
| 2026-05-08 13:27 | 31.72487 | 35.98702 | 2385 ft | 1 kts | 80° |
| 2026-05-08 13:29 | 31.72487 | 35.98704 | 2385 ft | 1 kts | 80° |
| 2026-05-08 13:30 | 31.72492 | 35.98734 | 2388 ft | 6 kts | 79° |
| 2026-05-08 13:30 | 31.72502 | 35.98803 | 2384 ft | 11 kts | 80° |
| 2026-05-08 13:30 | 31.72516 | 35.98902 | 2385 ft | 13 kts | 82° |
| 2026-05-08 13:30 | 31.72531 | 35.99009 | 2385 ft | 14 kts | 79° |
| 2026-05-08 13:31 | 31.72529 | 35.99121 | 2386 ft | 14 kts | 89° |
| 2026-05-08 13:31 | 31.72545 | 35.99237 | 2387 ft | 15 kts | 79° |
| 2026-05-08 13:31 | 31.72572 | 35.99354 | 2390 ft | 15 kts | 48° |
| 2026-05-08 13:31 | 31.72670 | 35.99363 | 2392 ft | 15 kts | 352° |
| 2026-05-08 13:32 | 31.72751 | 35.99424 | 2394 ft | 19 kts | 82° |
| 2026-05-08 13:32 | 31.72777 | 35.99592 | 2393 ft | 23 kts | 79° |
| 2026-05-08 13:32 | 31.72806 | 35.99775 | 2394 ft | 23 kts | 79° |
| 2026-05-08 13:32 | 31.72832 | 35.99961 | 2395 ft | 23 kts | 84° |
| 2026-05-08 13:33 | 31.72858 | 36.00151 | 2397 ft | 24 kts | 79° |
| 2026-05-08 13:33 | 31.72887 | 36.00342 | 2399 ft | 24 kts | 80° |
| 2026-05-08 13:33 | 31.72914 | 36.00536 | 2401 ft | 24 kts | 80° |
| 2026-05-08 13:33 | 31.72942 | 36.00723 | 2404 ft | 20 kts | 74° |
| 2026-05-08 13:34 | 31.73043 | 36.00772 | 2405 ft | 17 kts | 352° |
| 2026-05-08 13:34 | 31.73165 | 36.00746 | 2404 ft | 19 kts | 346° |
| 2026-05-08 13:34 | 31.73204 | 36.00591 | 2401 ft | 34 kts | 261° |
| 2026-05-08 13:34 | 31.73125 | 36.00053 | 2401 ft | 96 kts | 260° |
| 2026-05-08 13:35 | 31.72985 | 35.99088 | 2391 ft | 141 kts | 261° |
| 2026-05-08 13:35 | 31.72800 | 35.97837 | 2588 ft | 162 kts | 258° |
| 2026-05-08 13:35 | 31.72604 | 35.96526 | 3215 ft | 165 kts | 261° |
| 2026-05-08 13:35 | 31.72409 | 35.95191 | 3743 ft | 168 kts | 263° |
| 2026-05-08 13:36 | 31.72204 | 35.93753 | 3915 ft | 189 kts | 262° |
| 2026-05-08 13:36 | 31.71977 | 35.92143 | 4066 ft | 211 kts | 262° |
| 2026-05-08 13:36 | 31.71726 | 35.90366 | 4220 ft | 235 kts | 262° |
| 2026-05-08 13:36 | 31.71439 | 35.88370 | 4493 ft | 259 kts | 261° |
| 2026-05-08 13:37 | 31.71127 | 35.86220 | 5023 ft | 271 kts | 261° |
| 2026-05-08 13:37 | 31.70804 | 35.84000 | 5728 ft | 277 kts | 260° |
| 2026-05-08 13:37 | 31.70479 | 35.81768 | 6439 ft | 283 kts | 259° |
| 2026-05-08 13:37 | 31.70143 | 35.79468 | 7150 ft | 288 kts | 258° |
| 2026-05-08 13:38 | 31.69802 | 35.77139 | 7914 ft | 290 kts | 258° |
| 2026-05-08 13:38 | 31.69724 | 35.74759 | 8700 ft | 295 kts | 276° |
| 2026-05-08 13:38 | 31.70367 | 35.72464 | 9531 ft | 300 kts | 297° |
| 2026-05-08 13:38 | 31.71560 | 35.70430 | 10207 ft | 306 kts | 303° |
| 2026-05-08 13:39 | 31.72787 | 35.68313 | 10425 ft | 327 kts | 301° |
| 2026-05-08 13:39 | 31.74066 | 35.65987 | 10552 ft | 350 kts | 300° |
| 2026-05-08 13:39 | 31.75411 | 35.63498 | 10725 ft | 367 kts | 300° |
| 2026-05-08 13:39 | 31.76803 | 35.60936 | 11248 ft | 373 kts | 301° |
| 2026-05-08 13:40 | 31.78201 | 35.58390 | 11892 ft | 375 kts | 301° |
| 2026-05-08 13:40 | 31.79631 | 35.55809 | 12571 ft | 376 kts | 302° |
| 2026-05-08 13:40 | 31.81039 | 35.53218 | 13223 ft | 376 kts | 297° |
| 2026-05-08 13:40 | 31.81980 | 35.50348 | 13837 ft | 376 kts | 285° |
| 2026-05-08 13:41 | 31.82703 | 35.47375 | 14406 ft | 377 kts | 285° |
| 2026-05-08 13:41 | 31.83407 | 35.44432 | 14933 ft | 379 kts | 285° |
| 2026-05-08 13:41 | 31.84116 | 35.41435 | 15452 ft | 381 kts | 285° |
| 2026-05-08 13:41 | 31.84829 | 35.38417 | 15972 ft | 383 kts | 285° |
| 2026-05-08 13:42 | 31.85546 | 35.35384 | 16476 ft | 386 kts | 285° |
| 2026-05-08 13:42 | 31.86267 | 35.32324 | 16997 ft | 388 kts | 285° |
| 2026-05-08 13:42 | 31.86980 | 35.29295 | 17526 ft | 390 kts | 286° |
| 2026-05-08 13:42 | 31.87710 | 35.26198 | 18059 ft | 393 kts | 286° |
| 2026-05-08 13:43 | 31.88445 | 35.23081 | 18562 ft | 395 kts | 286° |
| 2026-05-08 13:43 | 31.89181 | 35.19957 | 19059 ft | 397 kts | 287° |
| 2026-05-08 13:43 | 31.89921 | 35.16813 | 19551 ft | 398 kts | 287° |
| 2026-05-08 13:43 | 31.90653 | 35.13698 | 20037 ft | 400 kts | 287° |
| 2026-05-08 13:44 | 31.91397 | 35.10533 | 20537 ft | 401 kts | 287° |
| 2026-05-08 13:44 | 31.92145 | 35.07352 | 20998 ft | 403 kts | 287° |
| 2026-05-08 13:44 | 31.92894 | 35.04162 | 21453 ft | 404 kts | 287° |
| 2026-05-08 13:44 | 31.93637 | 35.00992 | 21896 ft | 405 kts | 287° |
| 2026-05-08 13:45 | 31.94386 | 34.97775 | 22318 ft | 407 kts | 288° |
| 2026-05-08 13:45 | 31.95135 | 34.94553 | 22751 ft | 408 kts | 288° |
| 2026-05-08 13:45 | 31.95887 | 34.91318 | 23172 ft | 410 kts | 288° |
| 2026-05-08 13:45 | 31.96640 | 34.88077 | 23574 ft | 411 kts | 288° |
| 2026-05-08 13:46 | 31.97390 | 34.84855 | 23907 ft | 413 kts | 288° |
| 2026-05-08 13:46 | 31.98152 | 34.81592 | 24234 ft | 414 kts | 288° |
| 2026-05-08 13:46 | 31.98917 | 34.78314 | 24564 ft | 415 kts | 288° |
| 2026-05-08 13:46 | 31.99681 | 34.75018 | 24897 ft | 417 kts | 288° |
| 2026-05-08 13:47 | 32.00447 | 34.71707 | 25234 ft | 418 kts | 288° |
| 2026-05-08 13:47 | 32.01214 | 34.68383 | 25564 ft | 420 kts | 288° |
| 2026-05-08 13:47 | 32.01971 | 34.65090 | 25885 ft | 422 kts | 288° |
| 2026-05-08 13:47 | 32.02740 | 34.61743 | 26311 ft | 420 kts | 289° |
| 2026-05-08 13:48 | 32.03503 | 34.58423 | 26778 ft | 418 kts | 289° |
| 2026-05-08 13:48 | 32.04259 | 34.55124 | 27231 ft | 416 kts | 289° |
| 2026-05-08 13:48 | 32.05013 | 34.51833 | 27704 ft | 415 kts | 289° |
| 2026-05-08 13:48 | 32.05763 | 34.48555 | 28179 ft | 413 kts | 289° |
| 2026-05-08 13:49 | 32.06502 | 34.45328 | 28638 ft | 411 kts | 289° |
| 2026-05-08 13:49 | 32.07245 | 34.42082 | 29138 ft | 409 kts | 290° |
| 2026-05-08 13:49 | 32.07983 | 34.38858 | 29632 ft | 407 kts | 290° |
| 2026-05-08 13:49 | 32.08719 | 34.35643 | 30114 ft | 405 kts | 290° |
| 2026-05-08 13:50 | 32.09450 | 34.32438 | 30550 ft | 403 kts | 290° |
| 2026-05-08 13:50 | 32.10171 | 34.29249 | 30985 ft | 401 kts | 290° |
| 2026-05-08 13:50 | 32.10647 | 34.27141 | 31272 ft | 399 kts | 290° |
| 2026-05-08 13:50 | 32.11359 | 34.23989 | 31717 ft | 396 kts | 290° |
| 2026-05-08 13:51 | 32.12300 | 34.19828 | 32007 ft | 394 kts | 290° |
| 2026-05-08 13:51 | 32.12779 | 34.17710 | 32037 ft | 398 kts | 290° |
| 2026-05-08 13:51 | 32.14237 | 34.11304 | 32046 ft | 410 kts | 290° |
| 2026-05-08 13:52 | 32.15709 | 34.04787 | 32050 ft | 411 kts | 290° |
| 2026-05-08 13:52 | 32.17562 | 33.98498 | 32051 ft | 404 kts | 302° |
| 2026-05-08 13:53 | 32.20695 | 33.93036 | 32059 ft | 401 kts | 308° |
| 2026-05-08 13:53 | 32.23935 | 33.87670 | 32056 ft | 401 kts | 308° |
| 2026-05-08 13:54 | 32.27159 | 33.82312 | 32061 ft | 401 kts | 308° |
| 2026-05-08 13:54 | 32.30396 | 33.76926 | 32063 ft | 401 kts | 308° |
| 2026-05-08 13:55 | 32.33629 | 33.71543 | 32069 ft | 401 kts | 308° |
| 2026-05-08 13:56 | 32.38476 | 33.63464 | 32063 ft | 401 kts | 307° |
| 2026-05-08 13:56 | 32.41683 | 33.58096 | 32071 ft | 401 kts | 307° |
| 2026-05-08 13:57 | 32.44914 | 33.52684 | 32066 ft | 401 kts | 307° |
| 2026-05-08 13:57 | 32.48116 | 33.47312 | 32078 ft | 401 kts | 307° |
| 2026-05-08 13:58 | 32.51343 | 33.41894 | 32075 ft | 401 kts | 307° |
| 2026-05-08 13:58 | 32.54567 | 33.36468 | 32078 ft | 402 kts | 307° |
| 2026-05-08 13:59 | 32.57769 | 33.31080 | 32075 ft | 402 kts | 307° |
| 2026-05-08 13:59 | 32.60983 | 33.25651 | 32086 ft | 402 kts | 307° |
| 2026-05-08 14:00 | 32.65129 | 33.18636 | 32084 ft | 402 kts | 307° |
| 2026-05-08 14:00 | 32.77881 | 32.97004 | 32102 ft | 402 kts | 307° |
| 2026-05-08 14:01 | 32.90693 | 32.75186 | 32085 ft | 402 kts | 307° |
| 2026-05-08 14:01 | 33.03458 | 32.53296 | 32088 ft | 402 kts | 307° |
| 2026-05-08 14:02 | 33.16110 | 32.31434 | 32087 ft | 403 kts | 306° |
| 2026-05-08 14:02 | 33.28834 | 32.09341 | 32102 ft | 403 kts | 306° |
| 2026-05-08 14:03 | 33.41592 | 31.87079 | 32107 ft | 404 kts | 306° |
| 2026-05-08 14:03 | 33.54174 | 31.64942 | 32113 ft | 404 kts | 306° |
| 2026-05-08 14:04 | 33.66844 | 31.42557 | 32123 ft | 404 kts | 305° |
| 2026-05-08 14:04 | 33.79418 | 31.20203 | 32139 ft | 403 kts | 304° |
| 2026-05-08 14:05 | 33.91876 | 30.97919 | 32144 ft | 403 kts | 304° |
| 2026-05-08 14:05 | 34.04347 | 30.75456 | 32144 ft | 402 kts | 304° |
| 2026-05-08 14:06 | 34.16710 | 30.53070 | 32147 ft | 401 kts | 304° |
| 2026-05-08 14:06 | 34.29003 | 30.30642 | 32140 ft | 400 kts | 303° |
| 2026-05-08 14:07 | 34.41207 | 30.08234 | 32139 ft | 401 kts | 303° |
| 2026-05-08 14:07 | 34.54714 | 29.86676 | 32135 ft | 402 kts | 308° |
| 2026-05-08 14:08 | 34.68900 | 29.65534 | 32128 ft | 404 kts | 308° |
| 2026-05-08 14:08 | 34.83084 | 29.44356 | 32122 ft | 406 kts | 307° |
| 2026-05-08 14:09 | 34.97348 | 29.22918 | 32147 ft | 406 kts | 307° |
| 2026-05-08 14:09 | 35.11484 | 29.01522 | 32140 ft | 406 kts | 307° |
| 2026-05-08 14:10 | 35.25666 | 28.79937 | 32150 ft | 408 kts | 306° |
| 2026-05-08 14:10 | 35.39799 | 28.58282 | 32151 ft | 406 kts | 305° |
| 2026-05-08 14:11 | 35.53838 | 28.36631 | 32144 ft | 405 kts | 305° |
| 2026-05-08 14:11 | 35.67869 | 28.14899 | 32132 ft | 405 kts | 304° |
| 2026-05-08 14:12 | 35.81765 | 27.93189 | 32116 ft | 406 kts | 304° |
| 2026-05-08 14:12 | 35.95787 | 27.71170 | 32119 ft | 407 kts | 304° |
| 2026-05-08 14:13 | 36.08887 | 27.48610 | 32138 ft | 406 kts | 302° |
| 2026-05-08 14:13 | 36.22023 | 27.25776 | 32117 ft | 406 kts | 301° |
| 2026-05-08 14:14 | 36.35094 | 27.02876 | 32108 ft | 407 kts | 301° |
| 2026-05-08 14:14 | 36.48069 | 26.80006 | 32126 ft | 408 kts | 301° |
| 2026-05-08 14:15 | 36.61112 | 26.56822 | 32118 ft | 408 kts | 300° |
| 2026-05-08 14:15 | 36.74103 | 26.33634 | 32118 ft | 408 kts | 300° |
| 2026-05-08 14:16 | 36.86952 | 26.10506 | 32126 ft | 408 kts | 299° |
| 2026-05-08 14:16 | 36.99865 | 25.87083 | 32113 ft | 408 kts | 299° |
| 2026-05-08 14:17 | 37.12720 | 25.63618 | 32144 ft | 408 kts | 299° |
| 2026-05-08 14:17 | 37.24262 | 25.42407 | 32140 ft | 410 kts | 299° |
| 2026-05-08 14:18 | 37.27361 | 25.36408 | 32115 ft | 406 kts | 292° |
| 2026-05-08 14:18 | 37.29345 | 25.29821 | 32070 ft | 401 kts | 288° |
| 2026-05-08 14:18 | 37.30648 | 25.26756 | 31102 ft | 413 kts | 303° |
| 2026-05-08 14:19 | 37.32513 | 25.23957 | 29403 ft | 423 kts | 307° |
| 2026-05-08 14:19 | 37.34492 | 25.21115 | 27925 ft | 438 kts | 308° |
| 2026-05-08 14:19 | 37.36529 | 25.18220 | 26752 ft | 442 kts | 308° |
| 2026-05-08 14:19 | 37.38572 | 25.15314 | 25710 ft | 444 kts | 308° |
| 2026-05-08 14:20 | 37.40606 | 25.12405 | 24934 ft | 440 kts | 308° |
| 2026-05-08 14:20 | 37.42579 | 25.09567 | 24221 ft | 434 kts | 308° |
| 2026-05-08 14:20 | 37.44551 | 25.06707 | 23453 ft | 429 kts | 308° |
| 2026-05-08 14:20 | 37.46492 | 25.03875 | 22692 ft | 422 kts | 308° |
| 2026-05-08 14:21 | 37.48393 | 25.01095 | 22003 ft | 415 kts | 308° |
| 2026-05-08 14:21 | 37.50268 | 24.98354 | 21316 ft | 409 kts | 307° |
| 2026-05-08 14:21 | 37.52091 | 24.95694 | 20647 ft | 404 kts | 307° |
| 2026-05-08 14:21 | 37.53917 | 24.93027 | 19963 ft | 398 kts | 307° |
| 2026-05-08 14:22 | 37.55716 | 24.90398 | 19304 ft | 393 kts | 308° |
| 2026-05-08 14:22 | 37.57495 | 24.87794 | 18669 ft | 389 kts | 307° |
| 2026-05-08 14:22 | 37.59229 | 24.85251 | 17999 ft | 385 kts | 307° |
| 2026-05-08 14:22 | 37.60963 | 24.82706 | 17398 ft | 379 kts | 307° |
| 2026-05-08 14:23 | 37.62668 | 24.80201 | 16755 ft | 375 kts | 307° |
| 2026-05-08 14:23 | 37.64366 | 24.77708 | 16173 ft | 371 kts | 307° |
| 2026-05-08 14:23 | 37.66037 | 24.75255 | 15623 ft | 366 kts | 307° |
| 2026-05-08 14:23 | 37.67689 | 24.72825 | 15074 ft | 361 kts | 307° |
| 2026-05-08 14:24 | 37.69315 | 24.70432 | 14530 ft | 356 kts | 307° |
| 2026-05-08 14:24 | 37.70903 | 24.68094 | 13989 ft | 352 kts | 307° |
| 2026-05-08 14:24 | 37.72488 | 24.65755 | 13395 ft | 348 kts | 307° |
| 2026-05-08 14:24 | 37.74048 | 24.63451 | 12824 ft | 343 kts | 307° |
| 2026-05-08 14:25 | 37.75593 | 24.61173 | 12266 ft | 339 kts | 307° |
| 2026-05-08 14:25 | 37.77123 | 24.58920 | 11695 ft | 335 kts | 307° |
| 2026-05-08 14:25 | 37.78619 | 24.56710 | 11144 ft | 332 kts | 307° |
| 2026-05-08 14:25 | 37.80089 | 24.54539 | 10987 ft | 318 kts | 307° |
| 2026-05-08 14:26 | 37.81505 | 24.52454 | 10853 ft | 304 kts | 307° |
| 2026-05-08 14:26 | 37.82844 | 24.50480 | 10730 ft | 286 kts | 307° |
| 2026-05-08 14:26 | 37.84093 | 24.48638 | 10467 ft | 274 kts | 307° |
| 2026-05-08 14:26 | 37.85336 | 24.46797 | 10229 ft | 269 kts | 307° |
| 2026-05-08 14:27 | 37.86529 | 24.45023 | 9998 ft | 266 kts | 307° |
| 2026-05-08 14:27 | 37.87726 | 24.43237 | 9829 ft | 265 kts | 307° |
| 2026-05-08 14:27 | 37.88918 | 24.41456 | 9695 ft | 265 kts | 307° |
| 2026-05-08 14:27 | 37.90097 | 24.39700 | 9571 ft | 265 kts | 307° |
| 2026-05-08 14:28 | 37.91293 | 24.37922 | 9452 ft | 265 kts | 306° |
| 2026-05-08 14:28 | 37.92487 | 24.36147 | 9317 ft | 263 kts | 306° |
| 2026-05-08 14:28 | 37.93684 | 24.34364 | 8972 ft | 263 kts | 306° |
| 2026-05-08 14:28 | 37.94860 | 24.32612 | 8445 ft | 259 kts | 306° |
| 2026-05-08 14:29 | 37.96010 | 24.30895 | 7873 ft | 258 kts | 306° |
| 2026-05-08 14:29 | 37.97172 | 24.29162 | 7289 ft | 257 kts | 306° |
| 2026-05-08 14:29 | 37.98332 | 24.27432 | 6718 ft | 257 kts | 306° |
| 2026-05-08 14:29 | 37.99488 | 24.25708 | 6147 ft | 259 kts | 306° |
| 2026-05-08 14:30 | 38.00654 | 24.23967 | 5839 ft | 259 kts | 305° |
| 2026-05-08 14:30 | 38.01820 | 24.22225 | 5496 ft | 259 kts | 305° |
| 2026-05-08 14:30 | 38.02982 | 24.20492 | 5047 ft | 255 kts | 305° |
| 2026-05-08 14:30 | 38.04094 | 24.18841 | 4849 ft | 240 kts | 305° |
| 2026-05-08 14:31 | 38.05176 | 24.17228 | 4297 ft | 240 kts | 304° |
| 2026-05-08 14:31 | 38.06257 | 24.15604 | 3767 ft | 241 kts | 304° |
| 2026-05-08 14:31 | 38.07300 | 24.14032 | 3529 ft | 228 kts | 302° |
| 2026-05-08 14:32 | 38.08343 | 24.10563 | 3215 ft | 198 kts | 266° |
| 2026-05-08 14:32 | 38.08218 | 24.08874 | 3074 ft | 188 kts | 250° |
| 2026-05-08 14:32 | 38.07753 | 24.07374 | 2926 ft | 176 kts | 235° |
| 2026-05-08 14:32 | 38.07053 | 24.06183 | 2825 ft | 162 kts | 222° |
| 2026-05-08 14:33 | 38.06223 | 24.05308 | 2689 ft | 151 kts | 215° |
| 2026-05-08 14:33 | 38.05431 | 24.04550 | 2511 ft | 136 kts | 216° |
| 2026-05-08 14:33 | 38.04701 | 24.03852 | 2158 ft | 131 kts | 216° |
| 2026-05-08 14:33 | 38.03982 | 24.03165 | 1971 ft | 128 kts | 215° |
| 2026-05-08 14:34 | 38.03256 | 24.02473 | 1969 ft | 131 kts | 213° |
| 2026-05-08 14:34 | 38.02539 | 24.01788 | 1968 ft | 131 kts | 214° |
| 2026-05-08 14:34 | 38.01806 | 24.01088 | 1946 ft | 132 kts | 213° |
| 2026-05-08 14:34 | 38.01072 | 24.00388 | 1840 ft | 132 kts | 214° |
| 2026-05-08 14:35 | 38.00336 | 23.99686 | 1694 ft | 132 kts | 212° |
| 2026-05-08 14:35 | 37.99610 | 23.98993 | 1517 ft | 132 kts | 214° |
| 2026-05-08 14:35 | 37.98871 | 23.98289 | 1351 ft | 131 kts | 214° |
| 2026-05-08 14:35 | 37.98139 | 23.97591 | 1177 ft | 131 kts | 214° |
| 2026-05-08 14:36 | 37.97412 | 23.96900 | 1014 ft | 130 kts | 214° |
| 2026-05-08 14:36 | 37.96679 | 23.96207 | 822 ft | 134 kts | 215° |
| 2026-05-08 14:36 | 37.95919 | 23.95478 | 657 ft | 135 kts | 217° |
| 2026-05-08 14:36 | 37.95187 | 23.94776 | 465 ft | 132 kts | 217° |
| 2026-05-08 14:37 | 37.94470 | 23.94098 | 317 ft | 126 kts | 217° |
| 2026-05-08 14:37 | 37.93910 | 23.93563 | 296 ft | 62 kts | 217° |
| 2026-05-08 14:37 | 37.93702 | 23.93380 | 291 ft | 24 kts | 193° |
| 2026-05-08 14:37 | 37.93665 | 23.93424 | 293 ft | 1 kts | 110° |
| 2026-05-08 14:38 | 37.93659 | 23.93432 | 293 ft | 5 kts | 134° |
| 2026-05-08 14:38 | 37.93649 | 23.93445 | 299 ft | 0 kts | 134° |
| 2026-05-08 14:39 | 37.93645 | 23.93451 | 300 ft | 4 kts | 134° |
| 2026-05-08 14:39 | 37.93623 | 23.93484 | 300 ft | 8 kts | 129° |
| 2026-05-08 14:40 | 37.93562 | 23.93505 | 299 ft | 17 kts | 198° |
| 2026-05-08 14:40 | 37.93438 | 23.93430 | 299 ft | 16 kts | 153° |
| 2026-05-08 14:40 | 37.93364 | 23.93548 | 300 ft | 18 kts | 126° |
| 2026-05-08 14:40 | 37.93312 | 23.93637 | 303 ft | 20 kts | 127° |
| 2026-05-08 14:41 | 37.93194 | 23.93834 | 302 ft | 23 kts | 128° |
| 2026-05-08 14:41 | 37.93099 | 23.93997 | 302 ft | 20 kts | 116° |
| 2026-05-08 14:41 | 37.93164 | 23.94119 | 303 ft | 19 kts | 34° |
| 2026-05-08 14:41 | 37.93277 | 23.94225 | 302 ft | 21 kts | 43° |
| 2026-05-08 14:42 | 37.93267 | 23.94312 | 303 ft | 16 kts | 128° |
| 2026-05-08 14:42 | 37.93194 | 23.94436 | 302 ft | 19 kts | 127° |
| 2026-05-08 14:42 | 37.93189 | 23.94569 | 301 ft | 18 kts | 38° |
| 2026-05-08 14:42 | 37.93296 | 23.94668 | 302 ft | 20 kts | 36° |
| 2026-05-08 14:43 | 37.93404 | 23.94774 | 302 ft | 20 kts | 37° |
| 2026-05-08 14:43 | 37.93500 | 23.94863 | 302 ft | 9 kts | 32° |
| 2026-05-08 14:43 | 37.93518 | 23.94860 | 301 ft | 0 kts | 338° |
| 2026-05-08 14:45 | 37.93521 | 23.94863 | 301 ft | 1 kts | 15° |
| 2026-05-08 14:45 | 37.93531 | 23.94889 | 302 ft | 10 kts | 62° |
| 2026-05-08 14:45 | 37.93584 | 23.94874 | 301 ft | 8 kts | 307° |
| 2026-05-08 14:45 | 37.93605 | 23.94839 | 301 ft | 0 kts | 308° |